Main page
METAR-TAF:

METAR-TAF

Airports :

Brighton, England

Shoreham Airport

latitude: 50-50N, longitude: 000-17W, elevation: 2 m

Current weather observation

The report was made 12 minutes ago, at 13:20 UTC
Wind 17 kt from the West/Northwest with gusts up to 27 kt
Temperature 13°C
Humidity 58%
Pressure 1015 hPa
Visibility 10 km or more
Few clouds at a height of 3000 ft

METAR: EGKA 221320Z 29017G27KT 9999 FEW030 13/05 Q1015

Time: 14:32 (13:32 UTC)

Forecast

The report was made 2 hours and 34 minutes ago, at 10:58 UTC
Forecast valid from 22 at 12 UTC to 22 at 18 UTC
Wind 15 kt from the West
Visibility 10 km or more
Scattered clouds at a height of 4500 ft
Probability 30% :
Temporary
from 22 at 12 UTC to 22 at 17 UTC
Wind 18 kt from the West/Northwest with gusts up to 28 kt

TAF: EGKA 221058Z 2212/2218 28015KT 9999 SCT045 PROB30 TEMPO 2212/2217 29018G28KT

Weather observations and forecasts of more than 4000 airports (METAR and TAF reports).

The available stations are represented by yellow and red dots on the map.

Hover mouse over dot to see the name of the station.

Then click to see weather observations and forecasts.

To change the map : click on the green buttons with a black cross to zoom in, on the green button with a dash to zoom out, or on the green arrows for adjacent maps.


METAR-TAF: